Time;durP1;ratioP1;P1;durP2;ratioP2;P2;SDS_P1;SDS_P2;PMS_P1;PMS_P2;Temp;Humidity;BMP_temperature;BMP_pressure;BME280_temperature;BME280_humidity;BME280_pressure;Samples;Min_cycle;Max_cycle;Signal;HPM_P1;HPM_P2
2021/04/18 00:02:21;;;;;;;10.43;6.68;;;;;;;8.64;73.29;101041.81;5000688;28;20113;-74
2021/04/18 00:04:46;;;;;;;13.82;7.20;;;;;;;8.46;73.46;101039.88;5002600;28;20133;-74
2021/04/18 00:07:12;;;;;;;9.93;7.22;;;;;;;8.37;74.14;101039.75;5016386;28;20062;-74
2021/04/18 00:09:38;;;;;;;13.93;8.45;;;;;;;8.30;74.05;101030.91;5000522;28;20066;-74
2021/04/18 00:12:04;;;;;;;12.23;8.52;;;;;;;8.22;74.97;101033.44;5006068;28;20041;-74
2021/04/18 00:14:29;;;;;;;11.13;7.80;;;;;;;8.14;74.62;101024.59;5006238;28;20097;-74
2021/04/18 00:16:55;;;;;;;12.13;8.65;;;;;;;8.10;75.18;101022.81;5007390;28;20044;-73
2021/04/18 00:19:20;;;;;;;14.85;8.52;;;;;;;8.02;75.00;101021.81;5004718;28;20042;-74
2021/04/18 00:21:45;;;;;;;15.32;9.95;;;;;;;7.95;75.33;101027.88;5003964;28;20125;-74
2021/04/18 00:24:11;;;;;;;12.77;8.10;;;;;;;7.96;75.61;101030.50;5006324;28;20045;-74
2021/04/18 00:26:36;;;;;;;12.75;8.95;;;;;;;7.92;75.65;101027.84;5005229;28;20084;-74
2021/04/18 00:29:02;;;;;;;11.05;8.07;;;;;;;7.85;76.07;101032.13;5003907;28;20034;-74
2021/04/18 00:31:28;;;;;;;13.50;8.85;;;;;;;7.78;76.18;101038.13;5005690;28;20069;-74
2021/04/18 00:33:53;;;;;;;12.55;8.57;;;;;;;7.72;76.81;101031.06;5005557;28;20580;-74
2021/04/18 00:36:18;;;;;;;13.05;8.63;;;;;;;7.72;76.27;101031.06;5003863;28;20405;-74
2021/04/18 00:38:44;;;;;;;12.02;8.75;;;;;;;7.70;76.58;101027.53;5005182;28;20402;-74
2021/04/18 00:41:09;;;;;;;11.00;8.55;;;;;;;7.64;77.00;101020.44;5004690;28;20502;-74
2021/04/18 00:43:45;;;;;;;12.48;8.02;;;;;;;7.67;76.90;101022.22;5003516;28;20434;-74
2021/04/18 00:46:11;;;;;;;10.80;8.35;;;;;;;7.68;76.78;101013.50;5003691;28;20041;-74
2021/04/18 00:48:44;;;;;;;12.98;8.65;;;;;;;7.67;76.98;101016.97;5005314;28;20038;-74
2021/04/18 00:51:14;;;;;;;15.50;10.05;;;;;;;7.63;76.60;101020.44;5007639;28;20038;-73
2021/04/18 00:53:40;;;;;;;11.98;8.95;;;;;;;7.64;76.58;101019.56;5004154;28;20148;-74
2021/04/18 00:56:06;;;;;;;12.52;7.93;;;;;;;7.66;76.55;101025.75;5005846;28;20069;-74
2021/04/18 00:58:33;;;;;;;11.27;7.32;;;;;;;7.66;76.26;101025.75;5004159;28;20026;-74
2021/04/18 01:00:58;;;;;;;13.52;8.48;;;;;;;7.61;76.16;101030.03;5018840;28;20030;-74
2021/04/18 01:03:23;;;;;;;11.50;8.00;;;;;;;7.59;76.64;101037.00;5005463;28;20036;-74
2021/04/18 01:05:49;;;;;;;11.68;7.85;;;;;;;7.54;76.73;101030.81;5003554;28;20048;-74
2021/04/18 01:08:15;;;;;;;13.02;8.88;;;;;;;7.53;76.77;101034.31;5001861;28;20045;-74
2021/04/18 01:10:41;;;;;;;14.07;9.27;;;;;;;7.53;76.57;101036.94;5003410;28;20041;-74
2021/04/18 01:13:07;;;;;;;13.73;8.52;;;;;;;7.54;76.54;101025.56;5005027;28;20026;-74
2021/04/18 01:15:33;;;;;;;16.02;10.07;;;;;;;7.51;76.35;101020.25;5018294;28;20057;-74
2021/04/18 01:17:59;;;;;;;13.77;9.48;;;;;;;7.47;76.46;101020.22;5019246;28;20514;-74
2021/04/18 01:20:25;;;;;;;12.32;8.80;;;;;;;7.42;76.37;101021.91;5003115;28;20030;-74
2021/04/18 01:23:21;;;;;;;12.07;8.00;;;;;;;7.24;76.90;101019.00;5017951;28;20135;-74
2021/04/18 01:25:54;;;;;;;12.98;9.13;;;;;;;7.15;76.94;101017.13;5003022;28;20666;-74
2021/04/18 01:28:25;;;;;;;16.77;10.77;;;;;;;7.05;76.82;101025.72;5002071;28;20065;-74
2021/04/18 01:30:50;;;;;;;17.25;11.43;;;;;;;6.90;78.05;101042.09;5003817;28;20494;-73
2021/04/18 01:33:18;;;;;;;13.85;10.80;;;;;;;6.69;78.38;101041.72;5003723;28;20519;-74
2021/04/18 01:35:47;;;;;;;15.75;10.40;;;;;;;6.68;78.26;101045.19;5002790;28;20622;-74
2021/04/18 01:38:17;;;;;;;15.50;10.23;;;;;;;6.68;78.56;101038.22;5002799;28;20029;-74
2021/04/18 01:40:43;;;;;;;15.82;9.82;;;;;;;6.68;78.21;101043.47;5020035;28;20750;-74
2021/04/18 01:43:15;;;;;;;13.75;9.48;;;;;;;6.71;78.80;101042.63;5002164;28;20038;-74
2021/04/18 01:45:41;;;;;;;15.20;10.80;;;;;;;6.71;79.02;101040.88;5002565;28;20068;-74
2021/04/18 01:48:09;;;;;;;16.25;10.23;;;;;;;6.72;78.77;101041.75;5019125;28;20112;-74
2021/04/18 01:50:39;;;;;;;14.85;10.43;;;;;;;6.70;78.77;101036.47;5004713;28;20038;-74
2021/04/18 01:53:05;;;;;;;12.98;9.45;;;;;;;6.60;78.46;101031.91;5018608;28;20057;-74
2021/04/18 01:55:31;;;;;;;14.65;9.93;;;;;;;6.51;78.33;101032.66;5002433;28;20030;-74
2021/04/18 01:57:57;;;;;;;11.95;8.43;;;;;;;6.46;78.94;101034.28;5019398;28;20033;-75
2021/04/18 02:00:34;;;;;;;15.02;10.25;;;;;;;6.39;78.80;101026.28;5003363;28;20034;-75
2021/04/18 02:03:00;;;;;;;12.43;8.93;;;;;;;6.35;78.70;101033.22;5003174;28;20042;-75
2021/04/18 02:05:34;;;;;;;18.15;11.55;;;;;;;6.31;79.30;101039.25;5017469;28;20121;-74
2021/04/18 02:08:00;;;;;;;10.90;8.70;;;;;;;6.21;79.43;101042.53;5001730;28;20038;-74
2021/04/18 02:10:26;;;;;;;13.02;8.48;;;;;;;6.19;79.33;101039.03;5003051;28;20402;-74
2021/04/18 02:12:52;;;;;;;18.48;12.40;;;;;;;6.20;79.30;101040.78;5002673;28;20040;-75
2021/04/18 02:15:23;;;;;;;13.93;10.13;;;;;;;6.09;79.43;101043.19;5001186;28;20398;-74
2021/04/18 02:17:49;;;;;;;12.95;9.45;;;;;;;6.10;79.80;101045.84;5018691;28;20049;-74
2021/04/18 02:20:16;;;;;;;13.55;9.20;;;;;;;6.16;79.26;101047.72;5003067;28;20028;-74
2021/04/18 02:22:43;;;;;;;12.27;9.60;;;;;;;6.19;79.89;101046.91;5002581;28;20030;-74
2021/04/18 02:25:09;;;;;;;15.82;10.80;;;;;;;6.23;79.72;101046.09;5002424;28;20070;-75
2021/04/18 02:27:34;;;;;;;12.32;8.80;;;;;;;6.26;79.19;101044.44;5004127;28;20390;-74
2021/04/18 02:30:10;;;;;;;15.23;10.68;;;;;;;6.13;80.01;101040.69;5019088;28;20113;-74
2021/04/18 02:32:43;;;;;;;15.95;10.65;;;;;;;6.16;79.62;101034.63;5017265;28;20035;-74
2021/04/18 02:35:10;;;;;;;17.85;11.10;;;;;;;6.11;79.31;101039.75;5016839;28;20084;-74
2021/04/18 02:37:36;;;;;;;17.77;10.90;;;;;;;6.03;79.64;101028.25;5002235;28;20093;-74
2021/04/18 02:40:02;;;;;;;16.80;10.98;;;;;;;5.98;80.14;101035.13;5002267;28;20486;-74
2021/04/18 02:42:29;;;;;;;17.25;10.82;;;;;;;5.93;80.27;101026.25;5016377;28;20088;-74
2021/04/18 02:44:56;;;;;;;16.17;10.68;;;;;;;5.87;80.41;101026.13;5017492;28;20041;-74
2021/04/18 02:47:26;;;;;;;11.10;8.80;;;;;;;5.82;80.05;101033.00;5003233;28;20030;-74
2021/04/18 02:49:53;;;;;;;12.48;9.43;;;;;;;5.76;79.99;101028.50;5001601;28;20034;-74
2021/04/18 02:52:19;;;;;;;13.93;9.90;;;;;;;5.71;80.52;101022.28;5001011;28;20442;-73
2021/04/18 02:54:44;;;;;;;15.90;11.30;;;;;;;5.58;80.38;101023.78;5003065;28;20413;-73
2021/04/18 02:57:14;;;;;;;14.63;10.77;;;;;;;5.50;80.79;101020.06;5018764;28;20371;-74
2021/04/18 02:59:40;;;;;;;13.55;8.20;;;;;;;5.46;80.86;101021.75;5016879;28;20054;-74
2021/04/18 03:02:06;;;;;;;20.75;14.02;;;;;;;5.40;80.84;101023.34;4983873;28;20409;-74
2021/04/18 03:04:35;;;;;;;16.65;12.00;;;;;;;5.25;80.95;101018.66;5001934;28;20079;-74
2021/04/18 03:07:01;;;;;;;11.63;8.13;;;;;;;5.11;80.54;101015.72;5017932;28;20033;-74
2021/04/18 03:09:27;;;;;;;18.17;12.82;;;;;;;4.96;80.44;101016.22;4983432;28;20042;-73
2021/04/18 03:11:53;;;;;;;19.00;11.63;;;;;;;4.80;81.05;101022.81;5017177;28;20045;-74
2021/04/18 03:14:27;;;;;;;15.27;9.30;;;;;;;4.72;81.10;101021.72;5003380;28;20042;-73
2021/04/18 03:16:54;;;;;;;13.68;8.45;;;;;;;4.68;81.38;101019.88;5017681;28;20033;-74
2021/04/18 03:19:24;;;;;;;16.80;9.98;;;;;;;4.60;81.72;101022.28;5000850;28;20038;-74
2021/04/18 03:21:56;;;;;;;12.25;9.15;;;;;;;4.51;81.62;101019.44;5000870;28;20088;-74
2021/04/18 03:24:22;;;;;;;13.95;9.85;;;;;;;4.37;82.00;101013.81;5001857;28;20030;-74
2021/04/18 03:26:48;;;;;;;12.05;8.57;;;;;;;4.26;82.17;101015.28;4999286;28;20044;-74
2021/04/18 03:29:13;;;;;;;22.17;12.45;;;;;;;4.21;82.23;101016.00;5003015;28;20036;-74
2021/04/18 03:31:39;;;;;;;54.30;11.05;;;;;;;4.19;82.93;101013.34;5002178;28;20056;-74
2021/04/18 03:34:08;;;;;;;24.65;11.25;;;;;;;4.21;83.04;101021.22;5002418;28;20411;-74
2021/04/18 03:36:35;;;;;;;30.95;10.52;;;;;;;4.19;82.92;101018.56;4999929;28;20088;-74
2021/04/18 03:39:10;;;;;;;15.27;9.95;;;;;;;4.15;82.88;101014.09;5000714;28;20030;-74
2021/04/18 03:41:36;;;;;;;20.08;12.02;;;;;;;4.13;82.93;101023.63;5001695;28;20569;-74
2021/04/18 03:44:02;;;;;;;17.13;11.68;;;;;;;4.09;83.32;101021.78;5002194;28;20036;-73
2021/04/18 03:46:30;;;;;;;16.60;12.05;;;;;;;4.02;82.88;101019.84;5015918;28;20041;-74
2021/04/18 03:48:58;;;;;;;14.02;9.68;;;;;;;3.95;82.87;101011.81;5016195;28;20035;-74
2021/04/18 03:51:23;;;;;;;12.48;9.15;;;;;;;3.86;82.12;101013.28;5003175;28;20034;-74
2021/04/18 03:53:58;;;;;;;15.93;11.20;;;;;;;3.78;82.89;101015.69;5010544;28;20536;-74
2021/04/18 03:56:28;;;;;;;14.45;10.65;;;;;;;3.74;82.86;101009.47;5018009;28;20060;-74
2021/04/18 03:58:54;;;;;;;20.60;11.38;;;;;;;3.68;82.83;101013.63;5004423;28;20025;-74
2021/04/18 04:01:22;;;;;;;15.40;10.30;;;;;;;3.62;83.17;101014.34;5000133;28;20034;-74
2021/04/18 04:03:48;;;;;;;13.05;8.73;;;;;;;3.56;83.00;101013.25;5004665;28;20037;-74
2021/04/18 04:06:16;;;;;;;13.38;8.80;;;;;;;3.53;82.72;101021.88;5015641;28;20566;-74
2021/04/18 04:08:45;;;;;;;11.65;8.52;;;;;;;3.47;82.65;101022.59;5005295;28;20513;-74
2021/04/18 04:11:15;;;;;;;13.45;9.50;;;;;;;3.37;82.68;101023.13;5015452;28;20042;-74
2021/04/18 04:13:45;;;;;;;10.95;8.13;;;;;;;3.31;82.96;101022.97;4998914;28;20402;-74
2021/04/18 04:16:11;;;;;;;12.73;8.75;;;;;;;3.27;82.57;101018.47;5002518;28;20037;-74
2021/04/18 04:18:38;;;;;;;15.25;9.07;;;;;;;3.22;82.46;101030.47;5004561;28;20037;-74
2021/04/18 04:21:36;;;;;;;17.52;12.25;;;;;;;3.20;82.61;101029.56;4997265;28;20896;-74
2021/04/18 04:24:25;;;;;;;13.00;8.77;;;;;;;3.19;82.98;101025.19;5003048;28;20099;-73
2021/04/18 04:26:50;;;;;;;17.63;10.68;;;;;;;3.19;83.10;101028.66;5001322;28;20477;-74
2021/04/18 04:29:16;;;;;;;11.88;8.35;;;;;;;3.20;83.28;101022.63;5002230;28;20113;-74
2021/04/18 04:31:41;;;;;;;9.60;6.68;;;;;;;3.23;83.55;101025.31;5000589;28;20038;-74
2021/04/18 04:34:06;;;;;;;9.98;7.38;;;;;;;3.21;82.86;101032.22;5002371;28;20068;-74
2021/04/18 04:36:32;;;;;;;15.45;9.43;;;;;;;3.23;83.07;101024.44;5015807;28;20049;-74
2021/04/18 04:38:57;;;;;;;7.82;5.50;;;;;;;3.23;82.73;101029.66;5000387;28;20165;-74
2021/04/18 04:41:23;;;;;;;10.70;6.68;;;;;;;3.27;82.83;101027.22;5002262;28;20030;-74
2021/04/18 04:43:48;;;;;;;12.30;8.23;;;;;;;3.29;82.84;101020.28;5000898;28;20403;-75
2021/04/18 04:46:14;;;;;;;11.68;8.02;;;;;;;3.32;82.40;101029.94;5000043;28;20030;-74
2021/04/18 04:48:40;;;;;;;13.35;9.55;;;;;;;3.40;82.25;101035.41;5001934;28;20112;-74
2021/04/18 04:51:06;;;;;;;18.90;13.43;;;;;;;3.47;82.49;101040.84;5001594;28;20041;-74
2021/04/18 04:53:32;;;;;;;14.32;11.02;;;;;;;3.54;82.93;101041.94;4999552;28;20030;-74
2021/04/18 04:55:57;;;;;;;14.15;10.38;;;;;;;3.77;82.87;101046.94;5003384;28;20401;-74
2021/04/18 04:58:22;;;;;;;16.10;11.18;;;;;;;3.99;82.63;101044.13;5005900;28;20124;-74
2021/04/18 05:00:48;;;;;;;15.38;10.10;;;;;;;4.07;82.79;101042.63;5003634;28;20444;-74
2021/04/18 05:03:13;;;;;;;12.60;9.13;;;;;;;4.08;82.91;101043.50;5004075;28;20089;-74
2021/04/18 05:05:39;;;;;;;13.77;9.95;;;;;;;4.29;82.76;101046.72;5005709;28;20037;-74
2021/04/18 05:08:04;;;;;;;17.25;11.15;;;;;;;4.36;83.13;101040.81;5003866;28;20034;-74
2021/04/18 05:10:30;;;;;;;10.85;8.02;;;;;;;4.34;83.67;101039.88;5002265;28;20065;-74
2021/04/18 05:12:55;;;;;;;15.07;10.63;;;;;;;4.55;82.61;101038.69;5005393;28;20038;-74
2021/04/18 05:15:22;;;;;;;16.30;10.20;;;;;;;4.76;82.14;101036.63;5004502;28;20050;-74
2021/04/18 05:17:49;;;;;;;12.27;9.63;;;;;;;4.84;81.54;101037.69;5003195;28;20510;-74
2021/04/18 05:20:15;;;;;;;17.63;12.52;;;;;;;4.90;82.33;101042.22;5004685;28;20038;-74
2021/04/18 05:22:41;;;;;;;16.25;11.95;;;;;;;5.01;82.79;101034.66;5005038;28;20037;-73
2021/04/18 05:25:07;;;;;;;20.63;13.52;;;;;;;5.31;82.25;101029.25;5003125;28;20422;-74
2021/04/18 05:27:32;;;;;;;15.77;12.15;;;;;;;5.60;80.66;101021.16;5003880;28;20489;-74
2021/04/18 05:29:57;;;;;;;13.10;10.02;;;;;;;5.80;80.34;101032.09;5005144;28;20034;-74
2021/04/18 05:32:22;;;;;;;17.88;11.50;;;;;;;5.88;79.58;101027.88;5003272;28;20034;-74
2021/04/18 05:34:48;;;;;;;25.02;15.27;;;;;;;5.84;80.33;101024.31;5003293;28;20132;-74
2021/04/18 05:37:13;;;;;;;32.15;21.42;;;;;;;5.88;80.16;101038.38;5005061;28;20115;-74
2021/04/18 05:39:39;;;;;;;44.53;27.23;;;;;;;5.90;80.01;101037.53;5019092;28;20034;-73
2021/04/18 05:42:04;;;;;;;45.92;29.10;;;;;;;6.02;80.47;101028.19;5002420;28;20046;-74
2021/04/18 05:44:30;;;;;;;50.78;31.10;;;;;;;6.19;80.59;101029.44;5004808;28;20033;-74
2021/04/18 05:46:55;;;;;;;49.92;31.98;;;;;;;6.32;80.09;101035.78;5004354;28;20405;-74
2021/04/18 05:49:20;;;;;;;46.28;29.77;;;;;;;6.48;80.31;101027.34;5002513;28;20582;-74
2021/04/18 05:51:46;;;;;;;41.35;27.10;;;;;;;6.71;79.34;101027.78;5003776;28;20029;-74
2021/04/18 05:54:11;;;;;;;37.95;24.40;;;;;;;6.87;78.39;101035.91;5004695;28;20036;-74
2021/04/18 05:56:36;;;;;;;32.35;20.92;;;;;;;6.96;78.08;101029.06;5002496;28;20038;-74
2021/04/18 05:59:02;;;;;;;29.02;19.65;;;;;;;7.05;78.27;101024.81;5004196;28;20041;-74
2021/04/18 06:01:29;;;;;;;27.77;20.13;;;;;;;7.16;78.15;101044.25;5005647;28;20452;-74
2021/04/18 06:03:55;;;;;;;21.98;15.82;;;;;;;7.09;78.49;101042.38;5002438;28;20044;-74
2021/04/18 06:06:22;;;;;;;20.17;14.88;;;;;;;6.97;79.04;101043.97;5017330;28;20038;-74
2021/04/18 06:08:47;;;;;;;17.70;12.55;;;;;;;7.12;78.85;101029.31;5019440;28;20030;-74
2021/04/18 06:11:13;;;;;;;13.98;10.32;;;;;;;7.33;78.64;101037.50;5003522;28;20180;-74
2021/04/18 06:13:38;;;;;;;14.25;9.98;;;;;;;7.44;77.83;101032.41;5001825;28;20092;-74
2021/04/18 06:16:05;;;;;;;12.48;9.85;;;;;;;7.51;77.57;101028.16;5003982;28;20084;-74
2021/04/18 06:18:30;;;;;;;13.45;11.18;;;;;;;7.56;76.86;101031.72;5002850;28;20041;-74
2021/04/18 06:20:56;;;;;;;12.93;10.70;;;;;;;7.53;76.85;101040.44;5019001;28;20077;-74
2021/04/18 06:23:22;;;;;;;11.02;8.93;;;;;;;7.56;77.08;101035.22;5004313;28;20038;-75
2021/04/18 06:25:48;;;;;;;11.40;8.43;;;;;;;7.58;76.67;101037.88;4998932;28;20037;-74
2021/04/18 06:28:13;;;;;;;12.02;8.80;;;;;;;7.64;76.69;101043.22;5020313;28;20042;-74
2021/04/18 06:30:39;;;;;;;12.07;8.95;;;;;;;7.54;76.69;101033.44;5003695;28;20035;-74
2021/04/18 06:33:04;;;;;;;10.95;8.07;;;;;;;7.62;76.72;101044.94;5019268;28;20045;-74
2021/04/18 06:35:29;;;;;;;10.50;7.85;;;;;;;7.64;75.81;101040.59;5021538;28;20453;-75
2021/04/18 06:37:55;;;;;;;8.88;6.68;;;;;;;7.71;76.33;101037.19;5009183;28;20029;-75
2021/04/18 06:40:20;;;;;;;9.07;6.70;;;;;;;7.77;75.89;101044.28;5002372;28;20030;-75
2021/04/18 06:42:45;;;;;;;9.15;7.15;;;;;;;7.66;75.91;101052.88;5003766;28;20026;-74
2021/04/18 06:45:11;;;;;;;14.18;10.15;;;;;;;7.71;75.97;101050.34;5006212;28;20528;-75
2021/04/18 06:47:38;;;;;;;14.57;10.52;;;;;;;7.70;76.24;101051.16;5004182;28;20490;-75
2021/04/18 06:50:07;;;;;;;11.43;9.10;;;;;;;7.78;76.08;101057.44;5019827;28;20053;-74
2021/04/18 06:52:34;;;;;;;12.90;9.00;;;;;;;7.95;76.26;101048.88;5003679;28;20077;-75
2021/04/18 06:55:00;;;;;;;11.95;9.40;;;;;;;8.11;75.97;101045.59;5009120;28;20084;-75
2021/04/18 06:57:26;;;;;;;12.60;10.77;;;;;;;8.22;74.90;101043.94;5003634;28;20057;-75
2021/04/18 06:59:51;;;;;;;17.75;11.77;;;;;;;8.24;74.99;101046.63;5017198;28;20490;-75
2021/04/18 07:02:28;;;;;;;14.93;10.57;;;;;;;8.24;75.00;101047.50;5003142;28;20029;-75
2021/04/18 07:05:02;;;;;;;13.40;10.98;;;;;;;8.21;75.26;101050.09;5003160;28;20063;-75
2021/04/18 07:07:29;;;;;;;13.80;11.15;;;;;;;8.22;75.49;101049.22;5002474;28;20053;-75
2021/04/18 07:09:54;;;;;;;15.07;11.40;;;;;;;8.20;75.02;101040.44;5018195;28;20123;-76
2021/04/18 07:12:29;;;;;;;14.60;11.82;;;;;;;8.25;74.89;101037.84;5000650;28;20058;-75
2021/04/18 07:14:54;;;;;;;19.15;13.05;;;;;;;8.30;74.94;101039.66;5016155;28;20123;-75
2021/04/18 07:17:20;;;;;;;19.33;13.45;;;;;;;8.30;75.19;101042.28;5004176;28;20069;-75
2021/04/18 07:19:49;;;;;;;17.48;12.18;;;;;;;8.44;75.02;101042.50;5000263;28;20129;-75
2021/04/18 07:22:25;;;;;;;14.75;11.55;;;;;;;8.64;74.66;101041.81;5019613;28;20053;-75
2021/04/18 07:24:56;;;;;;;16.27;11.98;;;;;;;8.74;74.32;101041.91;5015752;28;20065;-74
2021/04/18 07:27:22;;;;;;;18.40;12.27;;;;;;;8.75;74.29;101043.69;5001416;28;20038;-74
2021/04/18 07:29:58;;;;;;;21.40;14.07;;;;;;;8.67;74.47;101052.34;5018508;28;20048;-75
2021/04/18 07:32:26;;;;;;;25.52;14.38;;;;;;;8.62;75.09;101052.34;5003383;28;20509;-75
2021/04/18 07:34:51;;;;;;;28.27;16.92;;;;;;;8.55;75.64;101047.88;5026564;28;20537;-75
2021/04/18 07:37:20;;;;;;;31.70;18.00;;;;;;;8.57;75.90;101048.78;5002163;28;20038;-74
2021/04/18 07:39:52;;;;;;;27.02;17.45;;;;;;;8.66;75.87;101043.59;5015608;28;20030;-74
2021/04/18 07:42:37;;;;;;;26.07;17.03;;;;;;;8.63;76.25;101040.94;5015548;28;20116;-75
2021/04/18 07:45:06;;;;;;;28.00;17.05;;;;;;;8.76;75.88;101037.56;5001583;28;20030;-77
2021/04/18 07:47:35;;;;;;;29.58;17.88;;;;;;;8.80;75.93;101043.72;5016535;28;20169;-76
2021/04/18 07:50:03;;;;;;;27.80;16.27;;;;;;;8.86;75.82;101050.81;5005530;28;20041;-76
2021/04/18 07:52:28;;;;;;;32.85;19.08;;;;;;;8.88;76.05;101047.31;5004286;28;20045;-75
2021/04/18 07:54:54;;;;;;;29.08;17.95;;;;;;;8.94;75.54;101038.59;5002509;28;20041;-75
2021/04/18 07:57:20;;;;;;;33.40;17.77;;;;;;;8.96;75.56;101042.09;5017619;28;20033;-75
2021/04/18 07:59:46;;;;;;;29.15;16.98;;;;;;;8.97;75.78;101038.63;5016552;28;20030;-75
2021/04/18 08:02:18;;;;;;;28.67;16.42;;;;;;;8.99;75.24;101035.13;4999764;28;20109;-75
2021/04/18 08:04:44;;;;;;;31.92;18.00;;;;;;;8.99;75.92;101029.00;5016309;28;20088;-75
2021/04/18 08:07:10;;;;;;;33.58;17.08;;;;;;;8.95;76.20;101032.44;5002354;28;20081;-75
2021/04/18 08:09:35;;;;;;;31.75;16.90;;;;;;;8.89;76.85;101029.78;5016929;28;20446;-75
2021/04/18 08:12:16;;;;;;;37.88;20.25;;;;;;;8.83;76.21;101025.34;5018450;28;20042;-79
2021/04/18 08:15:08;;;;;;;34.65;18.88;;;;;;;8.77;77.76;101027.91;5001930;28;20450;-75
2021/04/18 08:17:33;;;;;;;38.67;20.17;;;;;;;8.71;78.75;101022.59;5005732;28;20037;-75
2021/04/18 08:20:02;;;;;;;39.58;20.40;;;;;;;8.74;78.85;101020.84;5001963;28;20034;-74
2021/04/18 08:22:56;;;;;;;42.55;20.73;;;;;;;8.75;78.90;101027.91;4999647;28;20042;-75
2021/04/18 08:25:21;;;;;;;38.10;19.25;;;;;;;8.79;78.62;101020.91;5000534;28;20054;-75
2021/04/18 08:28:02;;;;;;;35.58;17.75;;;;;;;8.75;78.31;101024.38;4999046;28;20038;-75
2021/04/18 08:30:28;;;;;;;34.90;17.90;;;;;;;8.72;78.70;101033.16;5001750;28;20501;-74
2021/04/18 08:32:54;;;;;;;30.77;16.55;;;;;;;8.63;78.90;101029.53;5020929;28;20038;-74
2021/04/18 08:35:23;;;;;;;29.85;16.77;;;;;;;8.50;79.27;101028.53;5018905;28;20041;-74
2021/04/18 08:38:12;;;;;;;30.73;15.68;;;;;;;8.42;79.87;101023.19;5003672;28;20414;-74
2021/04/18 08:40:38;;;;;;;30.52;14.85;;;;;;;8.45;80.12;101020.56;5003012;28;20096;-74
2021/04/18 08:43:17;;;;;;;24.02;13.48;;;;;;;8.46;80.63;101024.09;5005794;28;20036;-74
2021/04/18 08:45:47;;;;;;;27.58;14.23;;;;;;;8.44;80.07;101021.47;5003215;28;20030;-74
2021/04/18 08:48:13;;;;;;;29.20;16.23;;;;;;;8.56;80.61;101012.78;5019665;28;20556;-74
2021/04/18 08:50:51;;;;;;;34.22;17.58;;;;;;;8.71;81.13;101009.44;5003975;28;20046;-74
2021/04/18 08:53:16;;;;;;;22.75;12.98;;;;;;;8.78;80.28;101017.41;5003840;28;20088;-74
2021/04/18 08:55:56;;;;;;;25.38;13.88;;;;;;;8.85;80.41;101009.53;5004042;28;20042;-74
2021/04/18 08:58:35;;;;;;;25.38;13.60;;;;;;;8.85;80.66;101015.69;5004292;28;20046;-74
2021/04/18 09:01:03;;;;;;;17.27;9.60;;;;;;;8.80;79.95;101016.50;5004560;28;20030;-74
2021/04/18 09:03:29;;;;;;;19.92;11.68;;;;;;;8.87;79.88;101007.81;5020560;28;20554;-74
2021/04/18 09:06:31;;;;;;;18.88;11.35;;;;;;;9.01;79.40;101011.44;5004039;28;20173;-74
2021/04/18 09:08:56;;;;;;;20.05;11.05;;;;;;;9.06;79.48;101011.47;5020962;28;20405;-74
2021/04/18 09:11:22;;;;;;;20.83;11.20;;;;;;;9.08;79.53;101017.63;5019484;28;20162;-74
2021/04/18 09:13:59;;;;;;;19.40;11.32;;;;;;;9.03;79.42;101014.97;5002931;28;20065;-74
2021/04/18 09:16:30;;;;;;;19.73;11.65;;;;;;;8.94;79.82;101012.28;5003837;28;20057;-74
2021/04/18 09:19:17;;;;;;;20.90;11.88;;;;;;;8.94;80.03;101009.63;5006845;28;20092;-74
2021/04/18 09:21:58;;;;;;;19.80;10.80;;;;;;;8.95;80.08;101011.38;5018786;28;20513;-74
2021/04/18 09:24:25;;;;;;;17.17;10.77;;;;;;;8.93;80.27;101013.13;5003993;28;20100;-74
2021/04/18 09:27:04;;;;;;;19.83;10.75;;;;;;;8.92;79.69;101008.72;5003302;28;20034;-74
2021/04/18 09:29:30;;;;;;;18.88;10.52;;;;;;;8.89;80.33;101008.72;5003282;28;20030;-74
2021/04/18 09:32:01;;;;;;;20.10;11.55;;;;;;;8.88;80.42;101013.09;5020030;28;20033;-74
2021/04/18 09:34:26;;;;;;;21.33;11.73;;;;;;;8.92;80.60;101022.78;5006820;28;20038;-74
2021/04/18 09:36:55;;;;;;;19.80;10.80;;;;;;;8.93;80.42;101021.00;5002713;28;20173;-74
2021/04/18 09:39:20;;;;;;;17.90;10.18;;;;;;;8.94;80.01;101014.91;5003794;28;20038;-74
2021/04/18 09:41:47;;;;;;;16.90;9.95;;;;;;;9.01;80.46;101011.44;5003612;28;20044;-73
2021/04/18 09:44:29;;;;;;;22.55;10.88;;;;;;;8.98;80.51;101016.66;5002416;28;20042;-74
2021/04/18 09:47:04;;;;;;;18.52;10.68;;;;;;;9.12;80.63;101008.91;5003458;28;20034;-74
2021/04/18 09:49:47;;;;;;;16.67;9.90;;;;;;;9.20;80.25;101017.75;5005076;28;20045;-74
2021/04/18 09:52:26;;;;;;;18.08;10.35;;;;;;;9.09;80.02;101014.13;5004662;28;20038;-74
2021/04/18 09:54:52;;;;;;;21.08;11.32;;;;;;;9.07;81.09;101021.16;5004862;28;20030;-74
2021/04/18 09:57:24;;;;;;;22.85;11.90;;;;;;;9.10;80.91;101015.91;5002186;28;20045;-74
2021/04/18 10:00:15;;;;;;;18.27;11.30;;;;;;;9.11;81.12;101017.66;5002309;28;20034;-74
2021/04/18 10:02:41;;;;;;;19.55;12.32;;;;;;;9.12;80.34;101014.16;5003132;28;20041;-74
2021/04/18 10:05:09;;;;;;;23.95;12.57;;;;;;;9.08;81.10;101018.50;5002448;28;20039;-74
2021/04/18 10:07:34;;;;;;;25.52;12.20;;;;;;;9.08;80.94;101013.25;5004290;28;20412;-74
2021/04/18 10:10:00;;;;;;;20.00;12.60;;;;;;;9.15;81.86;101012.44;5003739;28;20116;-74
2021/04/18 10:12:25;;;;;;;18.23;11.88;;;;;;;9.15;82.10;101011.56;5001922;28;20033;-74
2021/04/18 10:15:05;;;;;;;17.45;10.93;;;;;;;9.21;82.12;101007.19;5019308;28;20095;-74
2021/04/18 10:17:32;;;;;;;18.88;11.82;;;;;;;9.28;81.75;101005.50;5004396;28;20041;-74
2021/04/18 10:19:58;;;;;;;18.33;12.00;;;;;;;9.42;81.08;101002.94;5004194;28;20490;-74
2021/04/18 10:22:23;;;;;;;18.80;12.38;;;;;;;9.42;81.06;101002.94;5001753;28;20085;-74
2021/04/18 10:24:51;;;;;;;19.17;12.27;;;;;;;9.56;80.87;101001.28;5018222;28;20065;-74
2021/04/18 10:27:23;;;;;;;20.00;13.00;;;;;;;9.70;80.23;100997.84;5004449;28;20036;-74
2021/04/18 10:29:49;;;;;;;18.55;12.40;;;;;;;9.77;79.27;100994.34;5003874;28;20490;-74
2021/04/18 10:32:16;;;;;;;12.95;8.73;;;;;;;9.80;79.18;100992.63;5001473;28;20038;-74
2021/04/18 10:34:42;;;;;;;14.77;10.00;;;;;;;9.79;78.72;100995.22;5019294;28;20030;-74
2021/04/18 10:37:07;;;;;;;15.65;10.30;;;;;;;9.80;79.67;101002.28;5003981;28;20041;-74
2021/04/18 10:39:33;;;;;;;10.80;8.02;;;;;;;9.79;79.18;101006.66;5001964;28;20030;-74
2021/04/18 10:41:58;;;;;;;12.20;8.07;;;;;;;9.75;78.59;100994.34;5001980;28;20038;-74
2021/04/18 10:44:24;;;;;;;9.10;7.15;;;;;;;9.84;78.75;101001.41;5002580;28;20044;-74
2021/04/18 10:46:55;;;;;;;9.25;7.03;;;;;;;9.90;78.84;100990.88;4984755;28;20033;-74
2021/04/18 10:49:21;;;;;;;8.55;5.95;;;;;;;10.08;77.69;100990.94;5004398;28;20033;-74
2021/04/18 10:51:47;;;;;;;7.03;5.05;;;;;;;9.91;77.86;100991.78;5001802;28;20510;-74
2021/04/18 10:54:13;;;;;;;7.35;5.18;;;;;;;9.58;78.54;100988.09;4999955;28;20034;-74
2021/04/18 10:56:40;;;;;;;5.85;4.20;;;;;;;9.49;79.63;100983.69;5003586;28;20041;-74
2021/04/18 10:59:05;;;;;;;6.05;4.18;;;;;;;9.44;79.97;100993.31;5002940;28;20038;-74
2021/04/18 11:01:30;;;;;;;6.47;4.53;;;;;;;9.44;80.13;100990.66;5001218;28;20034;-74
2021/04/18 11:03:56;;;;;;;5.88;4.05;;;;;;;9.51;79.70;100987.22;5000263;28;20084;-74
2021/04/18 11:06:22;;;;;;;8.50;4.88;;;;;;;9.48;80.05;100984.53;5004741;28;20034;-74
2021/04/18 11:08:47;;;;;;;6.82;4.47;;;;;;;9.57;80.01;100995.13;5004114;28;20041;-74
2021/04/18 11:11:13;;;;;;;4.78;3.05;;;;;;;9.51;79.50;100987.22;5002300;28;20042;-75
2021/04/18 11:13:39;;;;;;;4.22;2.65;;;;;;;9.45;78.78;100987.16;5007293;28;20034;-74
2021/04/18 11:16:05;;;;;;;4.50;2.75;;;;;;;9.48;79.95;100981.88;5006155;28;20091;-74
2021/04/18 11:18:31;;;;;;;3.47;2.20;;;;;;;9.64;79.07;100989.03;5022994;28;20050;-72
2021/04/18 11:20:57;;;;;;;4.13;2.45;;;;;;;9.81;79.84;100986.47;5001140;28;20042;-73
2021/04/18 11:23:22;;;;;;;3.90;2.53;;;;;;;9.98;79.13;100981.28;5004511;28;20030;-73
2021/04/18 11:25:47;;;;;;;4.22;2.30;;;;;;;9.85;77.79;100976.78;5003045;28;20052;-73
2021/04/18 11:28:13;;;;;;;3.42;2.40;;;;;;;9.86;78.48;100976.81;5000148;28;20042;-72